createdAt,value
2023-02-17T00:00:26.442Z,65.94
2023-02-17T00:02:55.992Z,64.58
2023-02-17T00:05:23.292Z,67.56
2023-02-17T00:07:50.552Z,67.69
2023-02-17T00:10:19.487Z,67.66
2023-02-17T00:12:46.764Z,66.68
2023-02-17T00:15:14.033Z,67.67
2023-02-17T00:17:41.279Z,67.79
2023-02-17T00:20:09.173Z,68.04
2023-02-17T00:22:36.561Z,67.89
2023-02-17T00:25:04.036Z,67.77
2023-02-17T00:27:32.743Z,68.25
2023-02-17T00:30:00.110Z,67.92
2023-02-17T00:32:27.455Z,66.72
2023-02-17T00:34:54.750Z,65.79
2023-02-17T00:37:22.015Z,66.63
2023-02-17T00:39:49.206Z,66.71
2023-02-17T00:42:16.467Z,65.92
2023-02-17T00:44:45.196Z,67.71
2023-02-17T00:47:12.408Z,67.14
2023-02-17T00:49:39.732Z,68.19
2023-02-17T00:52:07.016Z,67.54
2023-02-17T00:54:34.223Z,67.91
2023-02-17T00:57:01.434Z,67.17
2023-02-17T00:59:29.056Z,67.83
2023-02-17T01:01:57.845Z,67.39
2023-02-17T01:04:25.145Z,66.67
2023-02-17T01:06:52.433Z,66.60
2023-02-17T01:09:19.646Z,66.85
2023-02-17T01:11:46.940Z,66.70
2023-02-17T01:14:14.285Z,67.32
2023-02-17T01:16:44.366Z,66.31
2023-02-17T01:19:13.869Z,66.87
2023-02-17T01:21:41.128Z,67.03
2023-02-17T01:24:08.510Z,67.82
2023-02-17T01:26:36.835Z,67.67
2023-02-17T01:29:04.705Z,67.49
2023-02-17T01:31:32.137Z,66.91
2023-02-17T01:34:00.718Z,67.29
2023-02-17T01:36:29.418Z,67.27
2023-02-17T01:38:56.629Z,67.81
2023-02-17T01:41:25.012Z,67.15
2023-02-17T01:44:10.043Z,67.68
2023-02-17T01:46:37.542Z,68.92
2023-02-17T01:49:05.406Z,68.87
2023-02-17T01:51:34.749Z,68.59
2023-02-17T01:54:03.234Z,68.45
2023-02-17T01:56:30.459Z,67.82
2023-02-17T01:58:59.384Z,68.96
2023-02-17T02:01:26.721Z,67.67
2023-02-17T02:03:53.973Z,68.25
2023-02-17T02:06:23.272Z,68.25
2023-02-17T02:08:53.098Z,68.53
2023-02-17T02:11:20.390Z,68.79
2023-02-17T02:13:47.598Z,68.61
2023-02-17T02:16:18.384Z,69.00
2023-02-17T02:18:51.423Z,68.01
2023-02-17T02:21:48.179Z,68.55
2023-02-17T02:24:37.100Z,69.37
2023-02-17T02:27:21.906Z,69.39
2023-02-17T02:30:18.668Z,69.88
2023-02-17T02:33:13.291Z,69.01
2023-02-17T02:35:46.121Z,68.07
2023-02-17T02:38:14.809Z,68.96
2023-02-17T02:40:44.101Z,69.66
2023-02-17T02:43:11.355Z,69.30
2023-02-17T02:45:38.662Z,69.58
2023-02-17T02:48:05.914Z,69.03
2023-02-17T02:50:48.126Z,69.81
2023-02-17T02:53:29.403Z,69.44
2023-02-17T02:56:00.126Z,69.42
2023-02-17T02:58:29.307Z,69.53
2023-02-17T03:00:59.186Z,69.64
2023-02-17T03:03:29.699Z,69.92
2023-02-17T03:06:01.750Z,70.18
2023-02-17T03:08:31.839Z,70.22
2023-02-17T03:10:59.157Z,71.15
2023-02-17T03:13:26.457Z,71.28
2023-02-17T03:15:53.806Z,71.11
2023-02-17T03:18:21.001Z,71.29
2023-02-17T03:20:51.203Z,72.03
2023-02-17T03:23:19.871Z,71.51
2023-02-17T03:25:47.117Z,70.93
2023-02-17T03:28:14.388Z,71.91
2023-02-17T03:30:41.643Z,71.04
2023-02-17T03:33:08.854Z,70.98
2023-02-17T03:35:36.092Z,72.19
2023-02-17T03:38:03.288Z,73.07
2023-02-17T03:40:31.969Z,71.87
2023-02-17T03:42:59.118Z,72.06
2023-02-17T03:45:26.383Z,71.74
2023-02-17T03:47:53.576Z,72.08
2023-02-17T03:50:20.782Z,71.60
2023-02-17T03:52:48.014Z,71.81
2023-02-17T03:55:15.355Z,70.52
2023-02-17T03:57:43.951Z,72.12
2023-02-17T04:00:11.850Z,72.50
2023-02-17T04:02:39.087Z,71.65
2023-02-17T04:05:07.078Z,71.05
2023-02-17T04:07:34.368Z,71.79
2023-02-17T04:10:03.263Z,71.15
2023-02-17T04:12:32.148Z,72.55
2023-02-17T04:15:00.889Z,72.94
2023-02-17T04:17:28.153Z,73.25
2023-02-17T04:19:55.416Z,74.08
2023-02-17T04:22:22.717Z,72.54
2023-02-17T04:24:49.998Z,71.76
2023-02-17T04:27:17.171Z,72.60
2023-02-17T04:29:44.433Z,72.79
2023-02-17T04:32:13.086Z,73.77
2023-02-17T04:34:40.375Z,72.88
2023-02-17T04:37:07.637Z,72.94
2023-02-17T04:39:34.894Z,72.67
2023-02-17T04:42:02.106Z,73.09
2023-02-17T04:44:29.404Z,73.34
2023-02-17T04:46:56.672Z,72.68
2023-02-17T04:49:25.425Z,73.35
2023-02-17T04:51:52.666Z,73.59
2023-02-17T04:54:19.996Z,73.67
2023-02-17T04:56:47.142Z,73.98
2023-02-17T04:59:14.400Z,73.75
2023-02-17T05:01:41.759Z,72.96
2023-02-17T05:04:09.093Z,72.06
2023-02-17T05:06:37.814Z,72.58
2023-02-17T05:09:05.144Z,71.93
2023-02-17T05:11:32.296Z,73.15
2023-02-17T05:13:59.569Z,72.85
2023-02-17T05:16:27.019Z,72.72
2023-02-17T05:18:54.317Z,73.11
2023-02-17T05:21:21.587Z,72.23
2023-02-17T05:23:50.358Z,72.52
2023-02-17T05:26:17.618Z,72.70
2023-02-17T05:28:44.834Z,71.95
2023-02-17T05:31:12.161Z,73.19
2023-02-17T05:33:39.465Z,72.88
2023-02-17T05:36:08.482Z,73.38
2023-02-17T05:38:35.932Z,73.36
2023-02-17T05:41:04.865Z,72.13
2023-02-17T05:43:32.174Z,72.40
2023-02-17T05:46:02.202Z,73.15
2023-02-17T05:48:29.451Z,72.94
2023-02-17T05:50:56.677Z,72.59
2023-02-17T05:53:23.970Z,72.50
2023-02-17T05:55:51.237Z,72.56
2023-02-17T05:58:20.002Z,72.24
2023-02-17T06:00:47.294Z,72.26
2023-02-17T06:03:14.637Z,73.42
2023-02-17T06:05:41.913Z,72.42
2023-02-17T06:08:09.179Z,72.50
2023-02-17T06:10:36.378Z,72.46
2023-02-17T06:13:03.593Z,72.84
2023-02-17T06:15:32.322Z,72.75
2023-02-17T06:17:59.607Z,73.14
2023-02-17T06:20:26.799Z,72.49
2023-02-17T06:22:54.141Z,72.34
2023-02-17T06:25:21.356Z,72.47
2023-02-17T06:27:48.684Z,72.36
2023-02-17T06:30:16.262Z,71.73
2023-02-17T06:32:45.039Z,70.39
2023-02-17T06:35:12.248Z,70.30
2023-02-17T06:37:39.543Z,70.43
2023-02-17T06:40:07.651Z,68.42
2023-02-17T06:42:34.970Z,67.29
2023-02-17T06:45:02.263Z,65.95
2023-02-17T06:47:29.417Z,66.40
2023-02-17T06:49:58.109Z,66.07
2023-02-17T06:52:25.334Z,65.13
2023-02-17T06:54:52.509Z,67.75
2023-02-17T06:57:19.868Z,67.94
2023-02-17T06:59:47.120Z,67.18
2023-02-17T07:02:14.613Z,68.92
2023-02-17T07:04:42.184Z,68.02
2023-02-17T07:07:10.997Z,67.12
2023-02-17T07:09:38.406Z,68.71
2023-02-17T07:12:06.037Z,68.76
2023-02-17T07:14:33.382Z,68.44
2023-02-17T07:17:00.566Z,69.81
2023-02-17T07:19:27.878Z,69.97
2023-02-17T07:21:55.177Z,69.16
2023-02-17T07:24:23.813Z,68.37
2023-02-17T07:26:51.156Z,68.53
2023-02-17T07:29:18.290Z,68.26
2023-02-17T07:31:45.399Z,66.67
2023-02-17T07:34:12.762Z,66.77
2023-02-17T07:36:40.115Z,67.37
2023-02-17T07:39:07.261Z,68.41
2023-02-17T07:41:35.916Z,67.87
2023-02-17T07:44:03.238Z,67.29
2023-02-17T07:46:30.575Z,66.98
2023-02-17T07:48:57.853Z,65.70
2023-02-17T07:51:25.204Z,67.18
2023-02-17T07:53:52.676Z,66.76
2023-02-17T07:56:20.737Z,67.24
2023-02-17T07:58:49.422Z,66.06
2023-02-17T08:01:17.814Z,64.94
2023-02-17T08:03:45.294Z,64.83
2023-02-17T08:06:12.613Z,65.72
2023-02-17T08:08:39.798Z,64.40
2023-02-17T08:11:09.396Z,63.52
2023-02-17T08:13:36.700Z,62.47
2023-02-17T08:16:06.190Z,62.14
2023-02-17T08:18:36.493Z,60.53
2023-02-17T08:21:04.867Z,59.15
2023-02-17T08:23:32.365Z,59.02
2023-02-17T08:25:59.666Z,58.35
2023-02-17T08:28:26.891Z,56.71
2023-02-17T08:30:54.294Z,57.87
2023-02-17T08:33:23.156Z,58.21
2023-02-17T08:35:50.432Z,58.77
2023-02-17T08:38:17.724Z,57.93
2023-02-17T08:40:45.100Z,58.31
2023-02-17T08:43:12.351Z,57.60
2023-02-17T08:45:39.696Z,58.04
2023-02-17T08:48:07.020Z,58.15
2023-02-17T08:50:37.104Z,59.41
2023-02-17T08:53:04.448Z,57.00
2023-02-17T08:55:44.009Z,56.12
2023-02-17T08:58:16.594Z,57.02
2023-02-17T09:00:43.926Z,55.18
2023-02-17T09:03:11.165Z,55.21
2023-02-17T09:05:39.911Z,54.26
2023-02-17T09:08:07.246Z,54.94
2023-02-17T09:10:34.585Z,55.42
2023-02-17T09:13:01.795Z,56.61
2023-02-17T09:15:29.276Z,57.37
2023-02-17T09:17:56.551Z,55.82
2023-02-17T09:20:25.395Z,55.07
2023-02-17T09:22:54.183Z,55.55
2023-02-17T09:25:21.477Z,55.72
2023-02-17T09:27:48.857Z,54.36
2023-02-17T09:30:16.196Z,54.45
2023-02-17T09:32:43.425Z,54.13
2023-02-17T09:35:11.850Z,53.37
2023-02-17T09:37:39.299Z,53.04
2023-02-17T09:40:08.705Z,53.06
2023-02-17T09:42:38.951Z,53.71
2023-02-17T09:45:07.883Z,53.69
2023-02-17T09:47:37.026Z,55.79
2023-02-17T09:50:06.540Z,56.05
2023-02-17T09:52:36.574Z,56.32
2023-02-17T09:55:05.302Z,56.59
2023-02-17T09:57:34.931Z,55.74
2023-02-17T10:00:05.073Z,55.58
2023-02-17T10:02:34.672Z,54.38
2023-02-17T10:05:05.918Z,54.04
2023-02-17T10:07:34.700Z,50.52
2023-02-17T10:10:04.717Z,48.27
2023-02-17T10:12:34.860Z,47.63
2023-02-17T10:15:05.318Z,51.68
2023-02-17T10:17:33.867Z,51.21
2023-02-17T10:20:03.458Z,52.63
2023-02-17T10:22:31.190Z,53.67
2023-02-17T10:24:58.951Z,53.41
2023-02-17T10:27:37.099Z,52.09
2023-02-17T10:30:13.462Z,49.15
2023-02-17T10:32:46.530Z,47.39
2023-02-17T10:35:14.709Z,50.99
2023-02-17T10:37:45.796Z,56.54
2023-02-17T10:40:16.314Z,55.86
2023-02-17T10:42:44.991Z,55.83
2023-02-17T10:45:16.176Z,54.44
2023-02-17T10:47:43.369Z,53.52
2023-02-17T10:50:17.806Z,52.20
2023-02-17T10:52:44.985Z,50.85
2023-02-17T10:55:23.277Z,43.93
2023-02-17T10:57:53.942Z,40.71
2023-02-17T11:00:21.544Z,39.86
2023-02-17T11:02:49.173Z,39.70
2023-02-17T11:05:24.060Z,39.78
2023-02-17T11:07:55.647Z,39.52
2023-02-17T11:10:23.785Z,41.27
2023-02-17T11:12:52.496Z,42.54
2023-02-17T11:15:21.181Z,41.35
2023-02-17T11:17:48.501Z,39.56
2023-02-17T11:20:35.008Z,39.03
2023-02-17T11:23:05.946Z,39.62
2023-02-17T11:25:34.086Z,41.95
2023-02-17T11:28:04.382Z,39.70
2023-02-17T11:30:32.556Z,40.41
2023-02-17T11:32:59.770Z,43.35
2023-02-17T11:35:29.167Z,44.17
2023-02-17T11:38:01.640Z,47.64
2023-02-17T11:40:30.017Z,46.80
2023-02-17T11:42:58.345Z,45.74
2023-02-17T11:45:28.290Z,43.93
2023-02-17T11:48:03.500Z,43.57
2023-02-17T11:50:41.424Z,42.96
2023-02-17T11:53:16.875Z,39.07
2023-02-17T11:55:50.903Z,39.76
2023-02-17T11:58:25.020Z,39.12
2023-02-17T12:00:56.200Z,39.66
2023-02-17T12:03:45.708Z,39.87
2023-02-17T12:06:14.795Z,41.73
2023-02-17T12:09:04.019Z,43.15
2023-02-17T12:11:33.903Z,44.75
2023-02-17T12:14:12.773Z,46.84
2023-02-17T12:16:45.940Z,45.34
2023-02-17T12:19:24.947Z,45.02
2023-02-17T12:21:57.815Z,43.94
2023-02-17T12:24:49.385Z,42.52
2023-02-17T12:27:24.526Z,39.79
2023-02-17T12:30:02.234Z,40.88
2023-02-17T12:32:39.452Z,35.19
2023-02-17T12:35:14.583Z,39.31
2023-02-17T12:37:48.191Z,37.25
2023-02-17T12:40:25.728Z,31.67
2023-02-17T12:42:54.127Z,30.20
2023-02-17T12:45:22.880Z,30.63
2023-02-17T12:47:53.636Z,29.33
2023-02-17T12:50:23.167Z,28.66
2023-02-17T12:52:52.001Z,29.20
2023-02-17T12:55:21.377Z,31.32
2023-02-17T12:57:49.676Z,30.39
2023-02-17T13:00:18.906Z,32.39
2023-02-17T13:02:46.061Z,31.73
2023-02-17T13:05:21.150Z,31.86
2023-02-17T13:07:49.127Z,32.00
2023-02-17T13:10:21.744Z,30.91
2023-02-17T13:13:00.241Z,31.63
2023-02-17T13:15:32.530Z,30.78
2023-02-17T13:18:00.168Z,32.43
2023-02-17T13:20:39.096Z,39.77
2023-02-17T13:23:08.814Z,36.64
2023-02-17T13:25:37.669Z,40.52
2023-02-17T13:28:17.778Z,38.50
2023-02-17T13:30:45.317Z,36.21
2023-02-17T13:33:27.494Z,33.64
2023-02-17T13:35:56.144Z,34.72
2023-02-17T13:38:27.636Z,31.64
2023-02-17T13:40:58.799Z,33.18
2023-02-17T13:43:26.053Z,34.36
2023-02-17T13:45:57.022Z,35.18
2023-02-17T13:48:25.315Z,37.90
2023-02-17T13:50:53.056Z,38.56
2023-02-17T13:53:24.347Z,39.76
2023-02-17T13:55:51.711Z,41.78
2023-02-17T13:58:22.564Z,41.52
2023-02-17T14:00:49.823Z,41.71
2023-02-17T14:03:20.480Z,42.27
2023-02-17T14:05:48.310Z,44.37
2023-02-17T14:08:18.950Z,45.23
2023-02-17T14:10:47.586Z,47.37
2023-02-17T14:13:14.862Z,48.33
2023-02-17T14:15:55.260Z,50.13
2023-02-17T14:18:29.353Z,51.91
2023-02-17T14:21:00.905Z,51.63
2023-02-17T14:23:28.142Z,52.41
2023-02-17T14:25:56.705Z,51.41
2023-02-17T14:28:25.053Z,48.67
2023-02-17T14:30:52.464Z,47.36
2023-02-17T14:33:21.918Z,47.90
2023-02-17T14:35:53.062Z,46.86
2023-02-17T14:38:21.535Z,46.93
2023-02-17T14:40:48.966Z,45.92
2023-02-17T14:43:17.729Z,43.55
2023-02-17T14:45:44.976Z,43.84
2023-02-17T14:48:12.197Z,43.60
2023-02-17T14:50:39.457Z,43.22
2023-02-17T14:53:11.386Z,41.31
2023-02-17T14:55:41.484Z,42.93
2023-02-17T14:58:09.206Z,45.26
2023-02-17T15:00:37.810Z,43.37
2023-02-17T15:03:05.110Z,44.85
2023-02-17T15:05:32.364Z,43.83
2023-02-17T15:08:00.284Z,44.42
2023-02-17T15:10:28.080Z,45.85
2023-02-17T15:12:55.733Z,45.18
2023-02-17T15:15:22.941Z,43.77
2023-02-17T15:17:51.663Z,43.06
2023-02-17T15:20:19.162Z,43.59
2023-02-17T15:22:46.442Z,42.99
2023-02-17T15:25:14.552Z,44.33
2023-02-17T15:27:41.801Z,44.75
2023-02-17T15:30:11.594Z,45.55
2023-02-17T15:32:38.969Z,45.79
2023-02-17T15:35:14.972Z,46.00
2023-02-17T15:37:42.310Z,47.49
2023-02-17T15:40:13.964Z,47.52
2023-02-17T15:42:41.340Z,48.77
2023-02-17T15:45:11.083Z,49.09
2023-02-17T15:47:38.358Z,48.00
2023-02-17T15:50:09.443Z,47.81
2023-02-17T15:52:38.143Z,49.19
2023-02-17T15:55:06.392Z,48.62
2023-02-17T15:57:33.629Z,48.07
2023-02-17T16:00:00.825Z,48.71
2023-02-17T16:02:28.184Z,47.84
2023-02-17T16:04:55.356Z,48.52
2023-02-17T16:07:22.684Z,49.19
2023-02-17T16:09:51.361Z,50.01
2023-02-17T16:12:20.112Z,50.06
2023-02-17T16:14:47.360Z,49.47
2023-02-17T16:17:15.928Z,48.92
2023-02-17T16:19:43.162Z,50.86
2023-02-17T16:22:10.435Z,48.65
2023-02-17T16:24:37.646Z,47.42
2023-02-17T16:27:07.044Z,46.80
2023-02-17T16:29:34.331Z,47.69
2023-02-17T16:32:01.696Z,49.09
2023-02-17T16:34:28.990Z,49.01
2023-02-17T16:36:57.040Z,49.42
2023-02-17T16:39:24.389Z,49.67
2023-02-17T16:41:51.598Z,48.83
2023-02-17T16:44:21.481Z,48.40
2023-02-17T16:46:49.732Z,49.00
2023-02-17T16:49:18.759Z,48.91
2023-02-17T16:51:46.063Z,48.08
2023-02-17T16:54:13.355Z,48.29
2023-02-17T16:56:43.175Z,46.48
2023-02-17T16:59:13.677Z,46.49
2023-02-17T17:01:42.356Z,46.19
2023-02-17T17:04:09.531Z,44.38
2023-02-17T17:06:37.240Z,44.58
2023-02-17T17:09:05.441Z,46.25
2023-02-17T17:11:32.711Z,45.11
2023-02-17T17:14:00.097Z,44.67
2023-02-17T17:16:29.014Z,42.58
2023-02-17T17:18:57.755Z,43.26
2023-02-17T17:21:25.145Z,43.51
2023-02-17T17:23:52.430Z,43.08
2023-02-17T17:26:23.015Z,44.55
2023-02-17T17:28:50.293Z,45.77
2023-02-17T17:31:17.844Z,45.36
2023-02-17T17:33:45.185Z,45.81
2023-02-17T17:36:15.782Z,46.41
2023-02-17T17:38:43.108Z,46.18
2023-02-17T17:41:11.941Z,45.24
2023-02-17T17:43:39.172Z,44.87
2023-02-17T17:46:11.276Z,44.88
2023-02-17T17:48:38.635Z,45.71
2023-02-17T17:51:06.244Z,45.51
2023-02-17T17:53:34.960Z,45.95
2023-02-17T17:56:02.126Z,46.23
2023-02-17T17:58:29.457Z,46.26
2023-02-17T18:00:56.757Z,46.27
2023-02-17T18:03:24.066Z,46.19
2023-02-17T18:05:51.357Z,46.14
2023-02-17T18:08:18.826Z,46.18
2023-02-17T18:10:47.513Z,47.43
2023-02-17T18:13:14.770Z,47.10
2023-02-17T18:15:41.996Z,48.61
2023-02-17T18:18:09.286Z,48.64
2023-02-17T18:20:36.569Z,49.92
2023-02-17T18:23:03.859Z,49.79
2023-02-17T18:25:31.177Z,49.96
2023-02-17T18:27:59.933Z,50.06
2023-02-17T18:30:27.317Z,50.58
2023-02-17T18:32:54.615Z,50.41
2023-02-17T18:35:21.842Z,52.16
2023-02-17T18:37:49.066Z,52.52
2023-02-17T18:40:17.461Z,52.32
2023-02-17T18:42:44.773Z,53.35
2023-02-17T18:45:13.750Z,54.54
2023-02-17T18:47:41.105Z,54.75
2023-02-17T18:50:09.276Z,55.98
2023-02-17T18:52:37.059Z,54.83
2023-02-17T18:55:04.659Z,54.39
2023-02-17T18:57:32.469Z,54.37
2023-02-17T18:59:59.715Z,54.13
2023-02-17T19:02:28.629Z,54.69
2023-02-17T19:04:56.019Z,55.05
2023-02-17T19:07:23.247Z,55.13
2023-02-17T19:09:50.612Z,55.21
2023-02-17T19:12:17.745Z,55.65
2023-02-17T19:14:44.975Z,55.87
2023-02-17T19:17:12.160Z,56.25
2023-02-17T19:19:41.530Z,56.23
2023-02-17T19:22:08.805Z,56.72
2023-02-17T19:24:36.215Z,56.38
2023-02-17T19:27:03.527Z,55.90
2023-02-17T19:29:30.806Z,55.56
2023-02-17T19:31:58.209Z,55.61
2023-02-17T19:34:25.569Z,55.78
2023-02-17T19:36:54.102Z,56.40
2023-02-17T19:39:21.268Z,56.43
2023-02-17T19:41:48.568Z,57.59
2023-02-17T19:44:15.756Z,57.53
2023-02-17T19:46:43.119Z,57.89
2023-02-17T19:49:10.422Z,58.82
2023-02-17T19:51:37.705Z,58.52
2023-02-17T19:54:06.424Z,57.93
2023-02-17T19:56:33.873Z,58.58
2023-02-17T19:59:01.046Z,58.62
2023-02-17T20:01:29.052Z,59.43
2023-02-17T20:03:56.372Z,59.77
2023-02-17T20:06:24.828Z,60.50
2023-02-17T20:08:53.378Z,60.49
2023-02-17T20:11:22.092Z,60.38
2023-02-17T20:13:49.193Z,59.86
2023-02-17T20:16:16.816Z,59.12
2023-02-17T20:18:45.965Z,59.35
2023-02-17T20:21:14.639Z,59.76
2023-02-17T20:23:41.880Z,60.09
2023-02-17T20:26:10.095Z,61.44
2023-02-17T20:28:39.134Z,60.69
2023-02-17T20:31:06.606Z,60.83
2023-02-17T20:33:33.931Z,61.22
2023-02-17T20:36:01.619Z,62.35
2023-02-17T20:38:28.973Z,62.40
2023-02-17T20:40:56.273Z,62.15
2023-02-17T20:43:23.438Z,62.51
2023-02-17T20:45:52.803Z,61.89
2023-02-17T20:48:20.074Z,61.41
2023-02-17T20:50:47.670Z,61.64
2023-02-17T20:53:14.937Z,62.24
2023-02-17T20:55:42.118Z,62.26
2023-02-17T20:58:10.419Z,62.02
2023-02-17T21:00:37.783Z,62.70
2023-02-17T21:03:06.545Z,62.39
2023-02-17T21:05:33.784Z,61.30
2023-02-17T21:08:01.021Z,63.66
2023-02-17T21:10:29.341Z,63.50
2023-02-17T21:12:56.640Z,63.94
2023-02-17T21:15:23.875Z,63.07
2023-02-17T21:17:51.128Z,62.91
2023-02-17T21:20:20.438Z,63.46
2023-02-17T21:22:47.620Z,63.79
2023-02-17T21:25:15.782Z,64.19
2023-02-17T21:27:42.956Z,63.28
2023-02-17T21:30:11.073Z,64.57
2023-02-17T21:32:38.334Z,65.22
2023-02-17T21:35:05.889Z,65.58
2023-02-17T21:37:34.545Z,65.79
2023-02-17T21:40:01.700Z,65.94
2023-02-17T21:42:28.884Z,65.86
2023-02-17T21:44:56.164Z,66.33
2023-02-17T21:47:23.419Z,66.64
2023-02-17T21:49:53.240Z,66.25
2023-02-17T21:52:20.444Z,65.88
2023-02-17T21:54:49.068Z,65.76
2023-02-17T21:57:16.295Z,65.98
2023-02-17T21:59:43.494Z,65.56
2023-02-17T22:02:13.336Z,65.85
2023-02-17T22:04:40.462Z,65.89
2023-02-17T22:07:07.583Z,66.98
2023-02-17T22:09:34.780Z,67.26
2023-02-17T22:12:03.403Z,66.96
2023-02-17T22:14:30.605Z,67.80
2023-02-17T22:16:57.760Z,67.33
2023-02-17T22:19:25.065Z,67.33
2023-02-17T22:21:52.396Z,67.06
2023-02-17T22:24:19.630Z,67.65
2023-02-17T22:26:47.342Z,68.18
2023-02-17T22:29:15.990Z,68.47
2023-02-17T22:31:43.437Z,68.06
2023-02-17T22:34:13.247Z,67.66
2023-02-17T22:36:40.474Z,67.48
2023-02-17T22:39:08.317Z,68.45
2023-02-17T22:41:35.656Z,68.15
